sensor_id;sensor_type;location;lat;lon;timestamp;P1;durP1;ratioP1;P2;durP2;ratioP2
2610;SDS011;5612;51.134;17.058;2023-02-13T00:01:41;21.13;;;14.50;;
2610;SDS011;5612;51.134;17.058;2023-02-13T00:04:11;23.70;;;15.17;;
2610;SDS011;5612;51.134;17.058;2023-02-13T00:06:40;22.33;;;15.73;;
2610;SDS011;5612;51.134;17.058;2023-02-13T00:09:09;18.23;;;14.23;;
2610;SDS011;5612;51.134;17.058;2023-02-13T00:11:38;22.47;;;14.93;;
2610;SDS011;5612;51.134;17.058;2023-02-13T00:14:07;28.00;;;15.20;;
2610;SDS011;5612;51.134;17.058;2023-02-13T00:16:35;18.50;;;14.57;;
2610;SDS011;5612;51.134;17.058;2023-02-13T00:19:04;19.20;;;15.40;;
2610;SDS011;5612;51.134;17.058;2023-02-13T00:21:35;23.10;;;15.17;;
2610;SDS011;5612;51.134;17.058;2023-02-13T00:24:04;18.20;;;14.63;;
2610;SDS011;5612;51.134;17.058;2023-02-13T00:26:33;22.97;;;14.87;;
2610;SDS011;5612;51.134;17.058;2023-02-13T00:29:01;23.50;;;14.60;;
2610;SDS011;5612;51.134;17.058;2023-02-13T00:31:30;17.23;;;13.97;;
2610;SDS011;5612;51.134;17.058;2023-02-13T00:33:59;18.77;;;14.70;;
2610;SDS011;5612;51.134;17.058;2023-02-13T00:36:28;21.07;;;15.03;;
2610;SDS011;5612;51.134;17.058;2023-02-13T00:38:58;21.03;;;12.80;;
2610;SDS011;5612;51.134;17.058;2023-02-13T00:41:27;19.33;;;13.67;;
2610;SDS011;5612;51.134;17.058;2023-02-13T00:43:56;21.10;;;14.40;;
2610;SDS011;5612;51.134;17.058;2023-02-13T00:46:25;18.10;;;13.47;;
2610;SDS011;5612;51.134;17.058;2023-02-13T00:48:53;19.83;;;13.30;;
2610;SDS011;5612;51.134;17.058;2023-02-13T00:51:23;16.10;;;11.13;;
2610;SDS011;5612;51.134;17.058;2023-02-13T00:53:51;16.30;;;13.57;;
2610;SDS011;5612;51.134;17.058;2023-02-13T00:56:21;15.13;;;11.33;;
2610;SDS011;5612;51.134;17.058;2023-02-13T00:58:50;17.63;;;12.07;;
2610;SDS011;5612;51.134;17.058;2023-02-13T01:01:19;17.33;;;11.23;;
2610;SDS011;5612;51.134;17.058;2023-02-13T01:03:48;16.47;;;11.17;;
2610;SDS011;5612;51.134;17.058;2023-02-13T01:06:16;16.30;;;11.87;;
2610;SDS011;5612;51.134;17.058;2023-02-13T01:08:45;17.80;;;11.80;;
2610;SDS011;5612;51.134;17.058;2023-02-13T01:11:14;19.60;;;13.97;;
2610;SDS011;5612;51.134;17.058;2023-02-13T01:13:46;15.63;;;10.50;;
2610;SDS011;5612;51.134;17.058;2023-02-13T01:16:14;16.73;;;12.33;;
2610;SDS011;5612;51.134;17.058;2023-02-13T01:18:43;18.17;;;13.30;;
2610;SDS011;5612;51.134;17.058;2023-02-13T01:21:14;18.43;;;13.33;;
2610;SDS011;5612;51.134;17.058;2023-02-13T01:23:44;17.13;;;14.27;;
2610;SDS011;5612;51.134;17.058;2023-02-13T01:26:15;15.87;;;12.13;;
2610;SDS011;5612;51.134;17.058;2023-02-13T01:28:47;20.37;;;12.53;;
2610;SDS011;5612;51.134;17.058;2023-02-13T01:31:18;14.03;;;12.07;;
2610;SDS011;5612;51.134;17.058;2023-02-13T01:33:47;17.27;;;12.47;;
2610;SDS011;5612;51.134;17.058;2023-02-13T01:36:16;18.10;;;12.77;;
2610;SDS011;5612;51.134;17.058;2023-02-13T01:38:45;12.17;;;10.37;;
2610;SDS011;5612;51.134;17.058;2023-02-13T01:41:14;16.47;;;11.20;;
2610;SDS011;5612;51.134;17.058;2023-02-13T01:43:44;14.90;;;11.83;;
2610;SDS011;5612;51.134;17.058;2023-02-13T01:46:17;21.93;;;14.20;;
2610;SDS011;5612;51.134;17.058;2023-02-13T01:48:50;18.60;;;12.70;;
2610;SDS011;5612;51.134;17.058;2023-02-13T01:51:22;15.57;;;11.97;;
2610;SDS011;5612;51.134;17.058;2023-02-13T01:53:57;18.67;;;11.53;;
2610;SDS011;5612;51.134;17.058;2023-02-13T01:56:28;15.50;;;11.20;;
2610;SDS011;5612;51.134;17.058;2023-02-13T01:59:02;18.40;;;13.20;;
2610;SDS011;5612;51.134;17.058;2023-02-13T02:01:34;13.50;;;11.13;;
2610;SDS011;5612;51.134;17.058;2023-02-13T02:04:05;16.50;;;11.43;;
2610;SDS011;5612;51.134;17.058;2023-02-13T02:06:38;12.57;;;10.17;;
2610;SDS011;5612;51.134;17.058;2023-02-13T02:09:10;15.20;;;11.83;;
2610;SDS011;5612;51.134;17.058;2023-02-13T02:11:43;13.60;;;11.30;;
2610;SDS011;5612;51.134;17.058;2023-02-13T02:14:18;17.57;;;11.30;;
2610;SDS011;5612;51.134;17.058;2023-02-13T02:16:47;14.53;;;11.37;;
2610;SDS011;5612;51.134;17.058;2023-02-13T02:19:18;12.23;;;9.63;;
2610;SDS011;5612;51.134;17.058;2023-02-13T02:25:16;13.40;;;10.93;;
2610;SDS011;5612;51.134;17.058;2023-02-13T02:28:08;14.37;;;12.40;;
2610;SDS011;5612;51.134;17.058;2023-02-13T02:34:04;16.77;;;12.27;;
2610;SDS011;5612;51.134;17.058;2023-02-13T02:36:44;15.20;;;11.77;;
2610;SDS011;5612;51.134;17.058;2023-02-13T02:39:26;19.87;;;12.87;;
2610;SDS011;5612;51.134;17.058;2023-02-13T02:42:04;15.00;;;11.10;;
2610;SDS011;5612;51.134;17.058;2023-02-13T02:44:47;15.30;;;12.47;;
2610;SDS011;5612;51.134;17.058;2023-02-13T02:47:23;16.80;;;12.73;;
2610;SDS011;5612;51.134;17.058;2023-02-13T02:50:18;18.87;;;14.20;;
2610;SDS011;5612;51.134;17.058;2023-02-13T02:52:56;22.90;;;13.83;;
2610;SDS011;5612;51.134;17.058;2023-02-13T02:55:35;22.53;;;14.63;;
2610;SDS011;5612;51.134;17.058;2023-02-13T02:58:10;21.20;;;15.10;;
2610;SDS011;5612;51.134;17.058;2023-02-13T03:01:02;23.30;;;13.87;;
2610;SDS011;5612;51.134;17.058;2023-02-13T03:03:52;22.43;;;14.77;;
2610;SDS011;5612;51.134;17.058;2023-02-13T03:06:45;20.93;;;14.40;;
2610;SDS011;5612;51.134;17.058;2023-02-13T03:09:18;18.27;;;14.63;;
2610;SDS011;5612;51.134;17.058;2023-02-13T03:12:07;17.43;;;14.67;;
2610;SDS011;5612;51.134;17.058;2023-02-13T03:14:55;18.50;;;15.27;;
2610;SDS011;5612;51.134;17.058;2023-02-13T03:17:24;21.10;;;15.03;;
2610;SDS011;5612;51.134;17.058;2023-02-13T03:20:13;19.67;;;14.73;;
2610;SDS011;5612;51.134;17.058;2023-02-13T03:23:22;22.40;;;14.97;;
2610;SDS011;5612;51.134;17.058;2023-02-13T03:26:14;20.30;;;15.87;;
2610;SDS011;5612;51.134;17.058;2023-02-13T03:29:13;20.07;;;14.67;;
2610;SDS011;5612;51.134;17.058;2023-02-13T03:32:09;20.87;;;14.70;;
2610;SDS011;5612;51.134;17.058;2023-02-13T03:34:48;15.97;;;13.73;;
2610;SDS011;5612;51.134;17.058;2023-02-13T03:37:42;21.93;;;15.17;;
2610;SDS011;5612;51.134;17.058;2023-02-13T03:40:27;21.43;;;14.53;;
2610;SDS011;5612;51.134;17.058;2023-02-13T03:43:02;18.30;;;14.20;;
2610;SDS011;5612;51.134;17.058;2023-02-13T03:45:36;19.67;;;15.57;;
2610;SDS011;5612;51.134;17.058;2023-02-13T03:48:24;21.40;;;14.77;;
2610;SDS011;5612;51.134;17.058;2023-02-13T03:51:15;20.73;;;15.10;;
2610;SDS011;5612;51.134;17.058;2023-02-13T03:53:48;22.13;;;14.63;;
2610;SDS011;5612;51.134;17.058;2023-02-13T03:56:23;22.30;;;17.10;;
2610;SDS011;5612;51.134;17.058;2023-02-13T03:59:13;30.37;;;18.87;;
2610;SDS011;5612;51.134;17.058;2023-02-13T04:01:49;22.30;;;16.17;;
2610;SDS011;5612;51.134;17.058;2023-02-13T04:04:25;25.37;;;17.97;;
2610;SDS011;5612;51.134;17.058;2023-02-13T04:07:02;20.60;;;17.33;;
2610;SDS011;5612;51.134;17.058;2023-02-13T04:09:34;27.90;;;18.77;;
2610;SDS011;5612;51.134;17.058;2023-02-13T04:12:11;25.37;;;17.80;;
2610;SDS011;5612;51.134;17.058;2023-02-13T04:14:45;30.30;;;19.47;;
2610;SDS011;5612;51.134;17.058;2023-02-13T04:17:18;26.20;;;19.73;;
2610;SDS011;5612;51.134;17.058;2023-02-13T04:19:51;30.53;;;19.80;;
2610;SDS011;5612;51.134;17.058;2023-02-13T04:22:20;26.80;;;19.97;;
2610;SDS011;5612;51.134;17.058;2023-02-13T04:24:49;30.43;;;20.70;;
2610;SDS011;5612;51.134;17.058;2023-02-13T04:27:19;27.93;;;20.20;;
2610;SDS011;5612;51.134;17.058;2023-02-13T04:29:48;29.77;;;23.70;;
2610;SDS011;5612;51.134;17.058;2023-02-13T04:32:17;26.90;;;21.70;;
2610;SDS011;5612;51.134;17.058;2023-02-13T04:34:46;31.67;;;22.37;;
2610;SDS011;5612;51.134;17.058;2023-02-13T04:37:14;33.77;;;23.43;;
2610;SDS011;5612;51.134;17.058;2023-02-13T04:39:43;34.80;;;25.27;;
2610;SDS011;5612;51.134;17.058;2023-02-13T04:42:12;29.40;;;23.20;;
2610;SDS011;5612;51.134;17.058;2023-02-13T04:44:42;28.80;;;22.93;;
2610;SDS011;5612;51.134;17.058;2023-02-13T04:47:11;33.10;;;23.80;;
2610;SDS011;5612;51.134;17.058;2023-02-13T04:49:39;36.13;;;23.53;;
2610;SDS011;5612;51.134;17.058;2023-02-13T04:52:08;26.37;;;21.03;;
2610;SDS011;5612;51.134;17.058;2023-02-13T04:54:37;29.40;;;21.77;;
2610;SDS011;5612;51.134;17.058;2023-02-13T04:57:05;29.43;;;21.50;;
2610;SDS011;5612;51.134;17.058;2023-02-13T04:59:34;28.23;;;21.57;;
2610;SDS011;5612;51.134;17.058;2023-02-13T05:02:04;31.97;;;23.43;;
2610;SDS011;5612;51.134;17.058;2023-02-13T05:04:33;30.47;;;21.30;;
2610;SDS011;5612;51.134;17.058;2023-02-13T05:07:02;35.53;;;23.10;;
2610;SDS011;5612;51.134;17.058;2023-02-13T05:09:31;30.00;;;21.20;;
2610;SDS011;5612;51.134;17.058;2023-02-13T05:11:59;30.53;;;19.03;;
2610;SDS011;5612;51.134;17.058;2023-02-13T05:14:28;33.67;;;21.47;;
2610;SDS011;5612;51.134;17.058;2023-02-13T05:16:57;32.43;;;20.67;;
2610;SDS011;5612;51.134;17.058;2023-02-13T05:19:27;33.30;;;21.93;;
2610;SDS011;5612;51.134;17.058;2023-02-13T05:21:56;30.17;;;19.90;;
2610;SDS011;5612;51.134;17.058;2023-02-13T05:24:42;30.43;;;19.73;;
2610;SDS011;5612;51.134;17.058;2023-02-13T05:27:11;26.27;;;20.80;;
2610;SDS011;5612;51.134;17.058;2023-02-13T05:29:40;30.23;;;21.13;;
2610;SDS011;5612;51.134;17.058;2023-02-13T05:32:08;31.17;;;20.73;;
2610;SDS011;5612;51.134;17.058;2023-02-13T05:34:39;27.63;;;20.50;;
2610;SDS011;5612;51.134;17.058;2023-02-13T05:37:07;26.80;;;19.40;;
2610;SDS011;5612;51.134;17.058;2023-02-13T05:39:36;22.30;;;16.97;;
2610;SDS011;5612;51.134;17.058;2023-02-13T05:42:05;24.43;;;17.00;;
2610;SDS011;5612;51.134;17.058;2023-02-13T05:44:34;23.80;;;16.97;;
2610;SDS011;5612;51.134;17.058;2023-02-13T05:47:03;25.50;;;17.53;;
2610;SDS011;5612;51.134;17.058;2023-02-13T05:49:32;24.53;;;16.80;;
2610;SDS011;5612;51.134;17.058;2023-02-13T05:52:02;26.40;;;18.00;;
2610;SDS011;5612;51.134;17.058;2023-02-13T05:54:31;25.07;;;17.53;;
2610;SDS011;5612;51.134;17.058;2023-02-13T05:57:00;24.10;;;16.23;;
2610;SDS011;5612;51.134;17.058;2023-02-13T05:59:29;27.30;;;18.70;;
2610;SDS011;5612;51.134;17.058;2023-02-13T06:01:58;24.17;;;19.17;;
2610;SDS011;5612;51.134;17.058;2023-02-13T06:04:26;31.87;;;19.63;;
2610;SDS011;5612;51.134;17.058;2023-02-13T06:06:55;29.27;;;19.83;;
2610;SDS011;5612;51.134;17.058;2023-02-13T06:09:25;29.23;;;19.07;;
2610;SDS011;5612;51.134;17.058;2023-02-13T06:11:54;31.27;;;19.60;;
2610;SDS011;5612;51.134;17.058;2023-02-13T06:14:23;29.33;;;20.30;;
2610;SDS011;5612;51.134;17.058;2023-02-13T06:16:52;28.13;;;18.87;;
2610;SDS011;5612;51.134;17.058;2023-02-13T06:19:20;28.60;;;19.17;;
2610;SDS011;5612;51.134;17.058;2023-02-13T06:21:49;25.00;;;18.20;;
2610;SDS011;5612;51.134;17.058;2023-02-13T06:24:18;27.63;;;18.00;;
2610;SDS011;5612;51.134;17.058;2023-02-13T06:26:48;27.63;;;17.90;;
2610;SDS011;5612;51.134;17.058;2023-02-13T06:29:16;26.83;;;18.80;;
2610;SDS011;5612;51.134;17.058;2023-02-13T06:31:45;31.60;;;19.50;;
2610;SDS011;5612;51.134;17.058;2023-02-13T06:34:14;28.03;;;18.43;;
2610;SDS011;5612;51.134;17.058;2023-02-13T06:36:43;25.03;;;17.30;;
2610;SDS011;5612;51.134;17.058;2023-02-13T06:39:11;25.87;;;16.53;;
2610;SDS011;5612;51.134;17.058;2023-02-13T06:41:41;27.67;;;18.40;;
2610;SDS011;5612;51.134;17.058;2023-02-13T06:44:11;30.07;;;19.10;;
2610;SDS011;5612;51.134;17.058;2023-02-13T06:46:39;25.40;;;17.60;;
2610;SDS011;5612;51.134;17.058;2023-02-13T06:49:08;26.07;;;19.20;;
2610;SDS011;5612;51.134;17.058;2023-02-13T06:51:37;31.43;;;19.90;;
2610;SDS011;5612;51.134;17.058;2023-02-13T06:54:06;26.27;;;19.77;;
2610;SDS011;5612;51.134;17.058;2023-02-13T06:56:34;32.40;;;20.43;;
2610;SDS011;5612;51.134;17.058;2023-02-13T06:59:03;23.77;;;18.97;;
2610;SDS011;5612;51.134;17.058;2023-02-13T07:01:33;29.47;;;18.93;;
2610;SDS011;5612;51.134;17.058;2023-02-13T07:04:02;27.70;;;17.20;;
2610;SDS011;5612;51.134;17.058;2023-02-13T07:06:31;25.70;;;17.40;;
2610;SDS011;5612;51.134;17.058;2023-02-13T07:09:00;24.53;;;16.83;;
2610;SDS011;5612;51.134;17.058;2023-02-13T07:11:30;26.33;;;17.80;;
2610;SDS011;5612;51.134;17.058;2023-02-13T07:14:16;26.03;;;17.80;;
2610;SDS011;5612;51.134;17.058;2023-02-13T07:16:46;28.80;;;19.83;;
2610;SDS011;5612;51.134;17.058;2023-02-13T07:19:15;25.00;;;17.30;;
2610;SDS011;5612;51.134;17.058;2023-02-13T07:21:43;25.37;;;19.50;;
2610;SDS011;5612;51.134;17.058;2023-02-13T07:24:12;26.80;;;18.20;;
2610;SDS011;5612;51.134;17.058;2023-02-13T07:26:41;26.60;;;18.40;;
2610;SDS011;5612;51.134;17.058;2023-02-13T07:29:10;23.80;;;17.30;;
2610;SDS011;5612;51.134;17.058;2023-02-13T07:31:39;22.80;;;16.20;;
2610;SDS011;5612;51.134;17.058;2023-02-13T07:34:09;28.17;;;18.63;;
2610;SDS011;5612;51.134;17.058;2023-02-13T07:36:38;26.50;;;18.20;;
2610;SDS011;5612;51.134;17.058;2023-02-13T07:39:07;23.67;;;17.97;;
2610;SDS011;5612;51.134;17.058;2023-02-13T07:41:36;25.03;;;18.17;;
2610;SDS011;5612;51.134;17.058;2023-02-13T07:44:05;23.83;;;18.00;;
2610;SDS011;5612;51.134;17.058;2023-02-13T07:46:33;25.70;;;18.00;;
2610;SDS011;5612;51.134;17.058;2023-02-13T07:49:02;25.97;;;17.70;;
2610;SDS011;5612;51.134;17.058;2023-02-13T07:51:33;26.27;;;17.93;;
2610;SDS011;5612;51.134;17.058;2023-02-13T07:54:02;27.80;;;18.23;;
2610;SDS011;5612;51.134;17.058;2023-02-13T07:56:31;27.50;;;19.00;;
2610;SDS011;5612;51.134;17.058;2023-02-13T07:59:00;30.23;;;19.70;;
2610;SDS011;5612;51.134;17.058;2023-02-13T08:01:28;29.73;;;18.63;;
2610;SDS011;5612;51.134;17.058;2023-02-13T08:03:57;23.97;;;18.10;;
2610;SDS011;5612;51.134;17.058;2023-02-13T08:06:26;25.80;;;18.27;;
2610;SDS011;5612;51.134;17.058;2023-02-13T08:08:56;23.60;;;18.30;;
2610;SDS011;5612;51.134;17.058;2023-02-13T08:11:42;35.83;;;21.33;;
2610;SDS011;5612;51.134;17.058;2023-02-13T08:14:20;29.17;;;20.47;;
2610;SDS011;5612;51.134;17.058;2023-02-13T08:16:51;33.47;;;20.67;;
2610;SDS011;5612;51.134;17.058;2023-02-13T08:19:21;27.47;;;18.93;;
2610;SDS011;5612;51.134;17.058;2023-02-13T08:21:50;26.73;;;20.07;;
2610;SDS011;5612;51.134;17.058;2023-02-13T08:24:20;25.53;;;19.80;;
2610;SDS011;5612;51.134;17.058;2023-02-13T08:26:50;30.57;;;19.47;;
2610;SDS011;5612;51.134;17.058;2023-02-13T08:29:19;27.10;;;18.50;;
2610;SDS011;5612;51.134;17.058;2023-02-13T08:31:48;26.40;;;19.10;;
2610;SDS011;5612;51.134;17.058;2023-02-13T08:34:17;30.43;;;18.40;;
2610;SDS011;5612;51.134;17.058;2023-02-13T08:36:46;24.57;;;17.73;;
2610;SDS011;5612;51.134;17.058;2023-02-13T08:39:15;29.50;;;18.63;;
2610;SDS011;5612;51.134;17.058;2023-02-13T08:41:45;23.10;;;17.53;;
2610;SDS011;5612;51.134;17.058;2023-02-13T08:44:14;24.33;;;15.97;;
2610;SDS011;5612;51.134;17.058;2023-02-13T08:46:43;27.83;;;17.03;;
2610;SDS011;5612;51.134;17.058;2023-02-13T08:49:12;20.97;;;16.43;;
2610;SDS011;5612;51.134;17.058;2023-02-13T08:51:41;25.37;;;16.90;;
2610;SDS011;5612;51.134;17.058;2023-02-13T08:54:10;26.57;;;16.70;;
2610;SDS011;5612;51.134;17.058;2023-02-13T08:56:39;28.60;;;16.27;;
2610;SDS011;5612;51.134;17.058;2023-02-13T08:59:09;27.27;;;17.67;;
2610;SDS011;5612;51.134;17.058;2023-02-13T09:01:39;24.17;;;16.10;;
2610;SDS011;5612;51.134;17.058;2023-02-13T09:04:08;23.80;;;14.50;;
2610;SDS011;5612;51.134;17.058;2023-02-13T09:06:37;24.60;;;15.17;;
2610;SDS011;5612;51.134;17.058;2023-02-13T09:09:06;21.90;;;12.57;;
2610;SDS011;5612;51.134;17.058;2023-02-13T09:11:35;22.47;;;14.50;;
2610;SDS011;5612;51.134;17.058;2023-02-13T09:14:04;19.03;;;14.30;;
2610;SDS011;5612;51.134;17.058;2023-02-13T09:16:34;16.27;;;11.77;;
2610;SDS011;5612;51.134;17.058;2023-02-13T09:19:03;21.33;;;14.10;;
2610;SDS011;5612;51.134;17.058;2023-02-13T09:21:32;13.03;;;9.50;;
2610;SDS011;5612;51.134;17.058;2023-02-13T09:24:00;11.30;;;8.83;;
2610;SDS011;5612;51.134;17.058;2023-02-13T09:26:29;12.57;;;8.20;;
2610;SDS011;5612;51.134;17.058;2023-02-13T09:28:58;8.97;;;6.47;;
2610;SDS011;5612;51.134;17.058;2023-02-13T09:31:27;8.33;;;5.40;;
2610;SDS011;5612;51.134;17.058;2023-02-13T09:33:58;4.07;;;3.67;;
2610;SDS011;5612;51.134;17.058;2023-02-13T09:36:27;7.17;;;4.23;;
2610;SDS011;5612;51.134;17.058;2023-02-13T09:38:56;3.30;;;3.00;;
2610;SDS011;5612;51.134;17.058;2023-02-13T09:41:27;5.50;;;4.43;;
2610;SDS011;5612;51.134;17.058;2023-02-13T09:43:57;5.70;;;4.00;;
2610;SDS011;5612;51.134;17.058;2023-02-13T09:46:31;4.73;;;4.00;;
2610;SDS011;5612;51.134;17.058;2023-02-13T09:49:04;6.00;;;4.50;;
2610;SDS011;5612;51.134;17.058;2023-02-13T09:51:35;6.13;;;5.53;;
2610;SDS011;5612;51.134;17.058;2023-02-13T09:54:04;3.30;;;3.00;;
2610;SDS011;5612;51.134;17.058;2023-02-13T09:56:36;6.93;;;5.10;;
2610;SDS011;5612;51.134;17.058;2023-02-13T09:59:19;10.30;;;9.53;;
2610;SDS011;5612;51.134;17.058;2023-02-13T10:02:01;5.50;;;5.00;;
2610;SDS011;5612;51.134;17.058;2023-02-13T10:04:47;7.73;;;5.70;;
2610;SDS011;5612;51.134;17.058;2023-02-13T10:07:21;5.50;;;5.00;;
2610;SDS011;5612;51.134;17.058;2023-02-13T10:09:59;7.87;;;6.20;;
2610;SDS011;5612;51.134;17.058;2023-02-13T10:12:36;8.73;;;6.63;;
2610;SDS011;5612;51.134;17.058;2023-02-13T10:15:26;7.67;;;5.83;;
2610;SDS011;5612;51.134;17.058;2023-02-13T10:18:00;5.60;;;4.43;;
2610;SDS011;5612;51.134;17.058;2023-02-13T10:20:33;6.33;;;4.87;;
2610;SDS011;5612;51.134;17.058;2023-02-13T10:23:11;8.60;;;7.10;;
2610;SDS011;5612;51.134;17.058;2023-02-13T10:25:47;3.30;;;3.10;;
2610;SDS011;5612;51.134;17.058;2023-02-13T10:28:25;12.43;;;9.80;;
2610;SDS011;5612;51.134;17.058;2023-02-13T10:30:59;15.10;;;11.60;;
2610;SDS011;5612;51.134;17.058;2023-02-13T10:33:33;13.37;;;10.40;;
2610;SDS011;5612;51.134;17.058;2023-02-13T10:36:15;9.07;;;8.20;;
2610;SDS011;5612;51.134;17.058;2023-02-13T10:38:51;6.60;;;6.00;;
2610;SDS011;5612;51.134;17.058;2023-02-13T10:41:27;4.90;;;4.00;;
2610;SDS011;5612;51.134;17.058;2023-02-13T10:44:11;3.63;;;3.33;;
2610;SDS011;5612;51.134;17.058;2023-02-13T10:46:54;6.10;;;5.50;;
2610;SDS011;5612;51.134;17.058;2023-02-13T10:49:45;4.60;;;3.90;;
2610;SDS011;5612;51.134;17.058;2023-02-13T10:52:27;6.00;;;5.40;;
2610;SDS011;5612;51.134;17.058;2023-02-13T10:55:22;4.63;;;4.13;;
2610;SDS011;5612;51.134;17.058;2023-02-13T10:58:05;6.30;;;4.83;;
2610;SDS011;5612;51.134;17.058;2023-02-13T11:00:41;4.67;;;4.07;;
2610;SDS011;5612;51.134;17.058;2023-02-13T11:03:18;4.53;;;4.03;;
2610;SDS011;5612;51.134;17.058;2023-02-13T11:05:49;4.47;;;4.07;;
2610;SDS011;5612;51.134;17.058;2023-02-13T11:08:22;8.40;;;4.80;;
2610;SDS011;5612;51.134;17.058;2023-02-13T11:10:52;4.27;;;3.77;;
2610;SDS011;5612;51.134;17.058;2023-02-13T11:13:21;4.40;;;4.00;;
2610;SDS011;5612;51.134;17.058;2023-02-13T11:15:59;6.20;;;4.10;;
2610;SDS011;5612;51.134;17.058;2023-02-13T11:18:31;6.60;;;3.50;;
2610;SDS011;5612;51.134;17.058;2023-02-13T11:21:03;3.50;;;3.20;;
2610;SDS011;5612;51.134;17.058;2023-02-13T11:23:43;4.57;;;4.17;;
2610;SDS011;5612;51.134;17.058;2023-02-13T11:26:20;3.60;;;3.30;;
2610;SDS011;5612;51.134;17.058;2023-02-13T11:28:52;4.03;;;3.63;;
2610;SDS011;5612;51.134;17.058;2023-02-13T11:31:24;4.70;;;4.30;;
2610;SDS011;5612;51.134;17.058;2023-02-13T11:33:54;3.87;;;3.50;;
2610;SDS011;5612;51.134;17.058;2023-02-13T11:36:26;6.40;;;4.73;;
2610;SDS011;5612;51.134;17.058;2023-02-13T11:38:58;5.37;;;4.90;;
2610;SDS011;5612;51.134;17.058;2023-02-13T11:41:29;5.80;;;4.60;;
2610;SDS011;5612;51.134;17.058;2023-02-13T11:43:59;8.20;;;5.50;;
2610;SDS011;5612;51.134;17.058;2023-02-13T11:46:41;4.17;;;3.87;;
2610;SDS011;5612;51.134;17.058;2023-02-13T11:49:14;3.67;;;3.40;;
2610;SDS011;5612;51.134;17.058;2023-02-13T11:51:47;5.73;;;4.77;;
2610;SDS011;5612;51.134;17.058;2023-02-13T11:54:23;4.80;;;3.77;;
2610;SDS011;5612;51.134;17.058;2023-02-13T11:56:58;4.40;;;4.00;;
2610;SDS011;5612;51.134;17.058;2023-02-13T11:59:31;4.50;;;4.20;;
2610;SDS011;5612;51.134;17.058;2023-02-13T12:02:13;3.90;;;3.60;;
2610;SDS011;5612;51.134;17.058;2023-02-13T12:04:45;6.47;;;4.63;;
2610;SDS011;5612;51.134;17.058;2023-02-13T12:07:16;7.70;;;5.70;;
2610;SDS011;5612;51.134;17.058;2023-02-13T12:09:49;7.20;;;6.50;;
2610;SDS011;5612;51.134;17.058;2023-02-13T12:12:26;5.53;;;4.97;;
2610;SDS011;5612;51.134;17.058;2023-02-13T12:15:01;9.80;;;7.57;;
2610;SDS011;5612;51.134;17.058;2023-02-13T12:17:41;7.73;;;6.93;;
2610;SDS011;5612;51.134;17.058;2023-02-13T12:20:13;6.70;;;6.00;;
2610;SDS011;5612;51.134;17.058;2023-02-13T12:22:46;4.60;;;3.73;;
2610;SDS011;5612;51.134;17.058;2023-02-13T12:25:33;6.30;;;5.77;;
2610;SDS011;5612;51.134;17.058;2023-02-13T12:28:10;6.03;;;5.53;;
2610;SDS011;5612;51.134;17.058;2023-02-13T12:30:48;5.40;;;5.03;;
2610;SDS011;5612;51.134;17.058;2023-02-13T12:33:35;8.20;;;7.40;;
2610;SDS011;5612;51.134;17.058;2023-02-13T12:36:20;8.00;;;7.30;;
2610;SDS011;5612;51.134;17.058;2023-02-13T12:38:56;8.40;;;5.30;;
2610;SDS011;5612;51.134;17.058;2023-02-13T12:41:40;9.50;;;6.93;;
2610;SDS011;5612;51.134;17.058;2023-02-13T12:44:37;4.17;;;3.87;;
2610;SDS011;5612;51.134;17.058;2023-02-13T12:47:23;4.70;;;4.40;;
2610;SDS011;5612;51.134;17.058;2023-02-13T12:50:15;6.33;;;5.73;;
2610;SDS011;5612;51.134;17.058;2023-02-13T12:53:27;5.13;;;4.57;;
2610;SDS011;5612;51.134;17.058;2023-02-13T12:56:28;3.80;;;3.50;;
2610;SDS011;5612;51.134;17.058;2023-02-13T12:59:10;12.13;;;6.50;;
2610;SDS011;5612;51.134;17.058;2023-02-13T13:01:53;3.70;;;3.40;;
2610;SDS011;5612;51.134;17.058;2023-02-13T13:04:41;4.20;;;3.90;;
2610;SDS011;5612;51.134;17.058;2023-02-13T13:07:18;4.90;;;4.50;;
2610;SDS011;5612;51.134;17.058;2023-02-13T13:10:02;5.47;;;4.50;;
2610;SDS011;5612;51.134;17.058;2023-02-13T13:12:50;4.43;;;4.13;;
2610;SDS011;5612;51.134;17.058;2023-02-13T13:15:29;4.27;;;3.97;;
2610;SDS011;5612;51.134;17.058;2023-02-13T13:18:05;4.83;;;4.43;;
2610;SDS011;5612;51.134;17.058;2023-02-13T13:23:45;4.10;;;3.70;;
2610;SDS011;5612;51.134;17.058;2023-02-13T13:26:24;5.37;;;3.60;;
2610;SDS011;5612;51.134;17.058;2023-02-13T13:29:04;4.33;;;3.97;;
2610;SDS011;5612;51.134;17.058;2023-02-13T13:31:39;5.50;;;4.93;;
2610;SDS011;5612;51.134;17.058;2023-02-13T13:34:11;5.80;;;5.30;;
2610;SDS011;5612;51.134;17.058;2023-02-13T13:36:45;4.83;;;4.43;;
2610;SDS011;5612;51.134;17.058;2023-02-13T13:39:23;5.03;;;4.20;;
2610;SDS011;5612;51.134;17.058;2023-02-13T13:42:03;5.37;;;4.93;;
2610;SDS011;5612;51.134;17.058;2023-02-13T13:44:46;5.30;;;4.90;;
2610;SDS011;5612;51.134;17.058;2023-02-13T13:47:35;3.97;;;3.67;;
2610;SDS011;5612;51.134;17.058;2023-02-13T13:50:19;22.37;;;15.40;;
2610;SDS011;5612;51.134;17.058;2023-02-13T13:53:09;44.07;;;27.57;;
2610;SDS011;5612;51.134;17.058;2023-02-13T13:56:00;6.37;;;5.20;;
2610;SDS011;5612;51.134;17.058;2023-02-13T13:58:35;6.83;;;6.13;;
2610;SDS011;5612;51.134;17.058;2023-02-13T14:01:19;5.47;;;5.03;;
2610;SDS011;5612;51.134;17.058;2023-02-13T14:03:52;4.53;;;4.23;;
2610;SDS011;5612;51.134;17.058;2023-02-13T14:06:23;6.80;;;5.27;;
2610;SDS011;5612;51.134;17.058;2023-02-13T14:08:58;6.37;;;5.73;;
2610;SDS011;5612;51.134;17.058;2023-02-13T14:11:33;5.30;;;4.80;;
2610;SDS011;5612;51.134;17.058;2023-02-13T14:20:33;6.50;;;5.90;;
2610;SDS011;5612;51.134;17.058;2023-02-13T14:32:02;5.23;;;4.80;;
2610;SDS011;5612;51.134;17.058;2023-02-13T14:34:48;5.50;;;5.10;;
2610;SDS011;5612;51.134;17.058;2023-02-13T14:37:23;5.10;;;4.70;;
2610;SDS011;5612;51.134;17.058;2023-02-13T14:43:27;5.73;;;5.13;;
2610;SDS011;5612;51.134;17.058;2023-02-13T14:46:07;5.97;;;5.43;;
2610;SDS011;5612;51.134;17.058;2023-02-13T14:48:51;5.23;;;4.80;;
2610;SDS011;5612;51.134;17.058;2023-02-13T14:51:25;6.53;;;5.00;;
2610;SDS011;5612;51.134;17.058;2023-02-13T14:54:04;5.40;;;4.90;;
2610;SDS011;5612;51.134;17.058;2023-02-13T14:56:37;17.30;;;15.07;;
2610;SDS011;5612;51.134;17.058;2023-02-13T14:59:10;11.67;;;8.10;;
2610;SDS011;5612;51.134;17.058;2023-02-13T15:01:47;9.23;;;7.57;;
2610;SDS011;5612;51.134;17.058;2023-02-13T15:04:21;72.83;;;32.80;;
2610;SDS011;5612;51.134;17.058;2023-02-13T15:06:57;80.73;;;33.67;;
2610;SDS011;5612;51.134;17.058;2023-02-13T15:09:32;66.83;;;32.20;;
2610;SDS011;5612;51.134;17.058;2023-02-13T15:14:54;6.63;;;5.60;;
2610;SDS011;5612;51.134;17.058;2023-02-13T15:17:24;5.20;;;4.80;;
2610;SDS011;5612;51.134;17.058;2023-02-13T15:19:58;18.93;;;17.43;;
2610;SDS011;5612;51.134;17.058;2023-02-13T15:22:32;5.20;;;4.70;;
2610;SDS011;5612;51.134;17.058;2023-02-13T15:25:06;6.03;;;5.57;;
2610;SDS011;5612;51.134;17.058;2023-02-13T15:27:37;5.73;;;5.13;;
2610;SDS011;5612;51.134;17.058;2023-02-13T15:30:17;5.87;;;4.63;;
2610;SDS011;5612;51.134;17.058;2023-02-13T15:32:52;6.03;;;5.30;;
2610;SDS011;5612;51.134;17.058;2023-02-13T15:35:23;6.30;;;5.50;;
2610;SDS011;5612;51.134;17.058;2023-02-13T15:37:54;7.70;;;6.07;;
2610;SDS011;5612;51.134;17.058;2023-02-13T15:40:26;6.50;;;5.37;;
2610;SDS011;5612;51.134;17.058;2023-02-13T15:42:56;6.10;;;5.60;;
2610;SDS011;5612;51.134;17.058;2023-02-13T15:45:27;6.80;;;5.67;;
2610;SDS011;5612;51.134;17.058;2023-02-13T15:47:58;4.90;;;4.50;;
2610;SDS011;5612;51.134;17.058;2023-02-13T15:50:29;5.13;;;4.70;;
2610;SDS011;5612;51.134;17.058;2023-02-13T15:53:01;6.67;;;6.00;;
2610;SDS011;5612;51.134;17.058;2023-02-13T15:55:35;5.63;;;5.10;;